TimeCST,TemperatureF,Dew PointF,Humidity,Sea Level PressureIn,VisibilityMPH,Wind Direction,Wind SpeedMPH,Gust SpeedMPH,PrecipitationIn,Events,Conditions,WindDirDegrees,DateUTC
12:14 AM,-9.4,-13.0,84,30.16,10.0,NW,6.9,-,N/A,,Scattered Clouds,320,2013-01-20 06:14:00
12:34 AM,-9.4,-14.8,77,30.16,10.0,Calm,Calm,-,N/A,,Scattered Clouds,0,2013-01-20 06:34:00
12:54 AM,-9.4,-14.8,77,30.17,10.0,NW,5.8,-,N/A,,Scattered Clouds,320,2013-01-20 06:54:00
1:14 AM,-11.2,-14.8,84,30.16,10.0,NNW,8.1,-,N/A,,Clear,330,2013-01-20 07:14:00
1:34 AM,-11.2,-14.8,84,30.17,10.0,NW,3.5,-,N/A,,Clear,320,2013-01-20 07:34:00
1:54 AM,-13.0,-18.4,77,30.19,10.0,Calm,Calm,-,N/A,,Clear,0,2013-01-20 07:54:00
2:14 AM,-13.0,-16.6,84,30.19,10.0,NNW,4.6,-,N/A,,Clear,330,2013-01-20 08:14:00
2:34 AM,-13.0,-16.6,84,30.20,10.0,North,-9999.0,-,N/A,,Clear,0,2013-01-20 08:34:00
2:54 AM,-14.8,-18.4,84,30.20,10.0,Calm,Calm,-,N/A,,Clear,0,2013-01-20 08:54:00
3:14 AM,-16.6,-20.2,84,30.19,10.0,Calm,Calm,-,N/A,,Clear,0,2013-01-20 09:14:00
3:34 AM,-18.4,-23.8,76,30.19,10.0,Calm,Calm,-,N/A,,Clear,0,2013-01-20 09:34:00
3:54 AM,-18.4,-23.8,76,30.19,10.0,Calm,Calm,-,N/A,,Scattered Clouds,0,2013-01-20 09:54:00
4:14 AM,-18.4,-22.0,84,30.20,10.0,Calm,Calm,-,N/A,,Clear,0,2013-01-20 10:14:00
4:34 AM,-16.6,-20.2,84,30.21,10.0,Calm,Calm,-,N/A,,Clear,0,2013-01-20 10:34:00
4:54 AM,-14.8,-18.4,84,30.21,10.0,Calm,Calm,-,N/A,,Clear,0,2013-01-20 10:54:00
5:14 AM,-14.8,-20.2,77,30.22,10.0,Calm,Calm,-,N/A,,Clear,0,2013-01-20 11:14:00
5:34 AM,-14.8,-18.4,84,30.23,10.0,Calm,Calm,-,N/A,,Clear,0,2013-01-20 11:34:00
5:54 AM,-14.8,-18.4,84,30.23,10.0,Calm,Calm,-,N/A,,Clear,0,2013-01-20 11:54:00
6:14 AM,-14.8,-18.4,84,30.24,10.0,Calm,Calm,-,N/A,,Clear,0,2013-01-20 12:14:00
6:34 AM,-14.8,-18.4,84,30.24,10.0,Calm,Calm,-,N/A,,Clear,0,2013-01-20 12:34:00
6:54 AM,-14.8,-20.2,77,30.24,10.0,Calm,Calm,-,N/A,,Clear,0,2013-01-20 12:54:00
7:14 AM,-16.6,-20.2,84,30.24,10.0,Calm,Calm,-,N/A,,Clear,0,2013-01-20 13:14:00
7:34 AM,-16.6,-20.2,84,30.25,10.0,Calm,Calm,-,N/A,,Mostly Cloudy,0,2013-01-20 13:34:00
7:54 AM,-16.6,-20.2,84,30.25,10.0,Calm,Calm,-,N/A,,Mostly Cloudy,0,2013-01-20 13:54:00
8:14 AM,-16.6,-20.2,84,30.25,10.0,Calm,Calm,-,N/A,,Mostly Cloudy,0,2013-01-20 14:14:00
8:34 AM,-16.6,-20.2,84,30.26,10.0,Calm,Calm,-,N/A,,Scattered Clouds,0,2013-01-20 14:34:00
8:54 AM,-16.6,-20.2,84,30.26,10.0,West,3.5,-,N/A,,Scattered Clouds,260,2013-01-20 14:54:00
9:14 AM,-14.8,-18.4,84,30.26,10.0,Calm,Calm,-,N/A,,Clear,0,2013-01-20 15:14:00
9:34 AM,-14.8,-18.4,84,30.26,10.0,Calm,Calm,-,N/A,,Clear,0,2013-01-20 15:34:00
9:54 AM,-13.0,-16.6,84,30.26,7.0,Calm,Calm,-,N/A,,Clear,0,2013-01-20 15:54:00
10:15 AM,-9.4,-14.8,77,30.26,10.0,West,3.5,-,N/A,,Clear,270,2013-01-20 16:15:00
10:34 AM,-9.4,-14.8,77,30.26,10.0,Calm,Calm,-,N/A,,Clear,0,2013-01-20 16:34:00
10:54 AM,-9.4,-11.2,92,30.26,5.0,Calm,Calm,-,N/A,,Mostly Cloudy,0,2013-01-20 16:54:00
11:14 AM,-5.8,-9.4,84,30.26,5.0,Calm,Calm,-,N/A,,Mostly Cloudy,0,2013-01-20 17:14:00
11:34 AM,-5.8,-9.4,84,30.25,3.0,West,3.5,-,N/A,,Overcast,270,2013-01-20 17:34:00
11:54 AM,-2.2,-7.6,78,30.24,7.0,Calm,Calm,-,N/A,,Mostly Cloudy,0,2013-01-20 17:54:00
12:14 PM,-0.4,-5.8,78,30.24,7.0,SW,3.5,-,N/A,Snow,Light Snow,220,2013-01-20 18:14:00
12:54 PM,1.4,-5.8,72,30.22,10.0,West,3.5,-,N/A,,Clear,270,2013-01-20 18:54:00
1:14 PM,-0.4,-4.0,85,30.21,7.0,SW,3.5,-,N/A,,Scattered Clouds,220,2013-01-20 19:14:00
1:35 PM,-0.4,-5.8,78,30.21,10.0,West,3.5,-,N/A,,Scattered Clouds,270,2013-01-20 19:35:00
1:54 PM,-0.4,-5.8,78,30.20,10.0,WSW,4.6,-,N/A,,Scattered Clouds,250,2013-01-20 19:54:00
2:14 PM,1.4,-4.0,78,30.19,10.0,WSW,3.5,-,N/A,,Scattered Clouds,240,2013-01-20 20:14:00
2:34 PM,1.4,-4.0,78,30.19,10.0,NW,5.8,-,N/A,,Scattered Clouds,310,2013-01-20 20:34:00
2:54 PM,-0.4,-5.8,78,30.19,10.0,Calm,Calm,-,N/A,,Scattered Clouds,0,2013-01-20 20:54:00
3:14 PM,-2.2,-5.8,85,30.20,7.0,West,5.8,-,N/A,,Mostly Cloudy,260,2013-01-20 21:14:00
3:34 PM,-2.2,-7.6,78,30.19,5.0,West,3.5,-,N/A,,Overcast,260,2013-01-20 21:34:00
3:54 PM,-2.2,-7.6,78,30.19,1.8,West,4.6,-,N/A,Snow,Light Snow,270,2013-01-20 21:54:00
4:14 PM,-4.0,-7.6,85,30.18,3.0,West,5.8,-,N/A,Snow,Light Snow,260,2013-01-20 22:14:00
4:34 PM,-5.8,-9.4,84,30.18,10.0,West,3.5,-,N/A,,Scattered Clouds,270,2013-01-20 22:34:00
4:54 PM,-7.6,-9.4,92,30.17,10.0,Calm,Calm,-,N/A,,Clear,0,2013-01-20 22:54:00
5:14 PM,-7.6,-11.2,84,30.17,5.0,Calm,Calm,-,N/A,,Clear,0,2013-01-20 23:14:00
5:34 PM,-9.4,-14.8,77,30.16,7.0,Calm,Calm,-,N/A,,Clear,0,2013-01-20 23:34:00
5:54 PM,-11.2,-14.8,84,30.16,10.0,Calm,Calm,-,N/A,,Clear,0,2013-01-20 23:54:00
6:14 PM,-13.0,-18.4,77,30.16,10.0,Calm,Calm,-,N/A,,Clear,0,2013-01-21 00:14:00
6:34 PM,-16.6,-20.2,84,30.16,10.0,Calm,Calm,-,N/A,,Clear,0,2013-01-21 00:34:00
6:54 PM,-18.4,-23.8,76,30.16,10.0,Calm,Calm,-,N/A,,Scattered Clouds,0,2013-01-21 00:54:00
7:14 PM,-18.4,-23.8,76,30.15,4.0,Calm,Calm,-,N/A,Snow,Light Snow,0,2013-01-21 01:14:00
7:34 PM,-18.4,-23.8,76,30.15,10.0,Calm,Calm,-,N/A,,Scattered Clouds,0,2013-01-21 01:34:00
7:54 PM,-20.2,-25.6,76,30.15,5.0,Calm,Calm,-,N/A,Snow,Light Snow,0,2013-01-21 01:54:00
8:14 PM,-18.4,-22.0,84,30.14,10.0,Calm,Calm,-,N/A,Snow,Light Snow,0,2013-01-21 02:14:00
8:34 PM,-16.6,-20.2,84,30.14,10.0,Calm,Calm,-,N/A,,Clear,0,2013-01-21 02:34:00
8:54 PM,-13.0,-16.6,84,30.14,10.0,WNW,5.8,-,N/A,,Clear,290,2013-01-21 02:54:00
9:14 PM,-11.2,-16.6,77,30.14,10.0,WNW,3.5,-,N/A,,Clear,300,2013-01-21 03:14:00
9:34 PM,-11.2,-16.6,77,30.14,10.0,West,5.8,-,N/A,,Clear,270,2013-01-21 03:34:00
9:54 PM,-11.2,-16.6,77,30.14,7.0,West,6.9,-,N/A,,Scattered Clouds,270,2013-01-21 03:54:00
10:14 PM,-13.0,-16.6,84,30.14,10.0,West,3.5,-,N/A,,Scattered Clouds,280,2013-01-21 04:14:00
10:34 PM,-13.0,-18.4,77,30.15,10.0,West,3.5,-,N/A,,Scattered Clouds,270,2013-01-21 04:34:00
10:54 PM,-13.0,-18.4,77,30.15,3.0,West,5.8,-,N/A,Snow,Light Snow,280,2013-01-21 04:54:00
11:14 PM,-14.8,-18.4,84,30.15,4.0,West,5.8,-,N/A,,Overcast,260,2013-01-21 05:14:00
11:34 PM,-14.8,-18.4,84,30.15,7.0,West,9.2,-,N/A,,Overcast,280,2013-01-21 05:34:00
11:54 PM,-14.8,-20.2,77,30.15,10.0,West,6.9,-,N/A,,Scattered Clouds,260,2013-01-21 05:54:00